Humidity-temperature Sensor

Selected Measurement Type: Relative Humidity

 
Relative Humidity [%]     6 entries per hour
Showing data from 4/11/2016 (00:00:00 Z) to 4/4/2016 (00:01:00 Z)
Previous Next [ Day | 3-Days | 7-Days ]
First Last
Prev [ Day | 3-Days | 7-Days ] Next
First Last

Start Time:     :
End Time:     :     
Time (in GMT) :00 :50 :40 :30 :20 :10
Previous Next [ Day | 3-Days | 7-Days ]
First Last
Prev [ Day | 3-Days | 7-Days ] Next
First Last


123 => good data
MM => data is determined as missing
-- => data not received/configured
Back to Top Back to Top
4/11/2016 00:00 to 23:10 76.67 74.97 76.26 76.24 77.07 76.77
4/10/2016 23:00 to 22:10 77.27 77.19 75.47 74.95 74.73 75.27
4/10/2016 22:00 to 21:10 75.33 76.06 76.56 76.85 77.37 77.05
4/10/2016 21:00 to 20:10 77.07 76.97 78.18 78.24 78.73 78.71
4/10/2016 20:00 to 19:10 79.58 80.08 80.63 81.29 82.10 81.13
4/10/2016 19:00 to 18:10 82.10 81.84 81.39 81.68 82.16 82.59
4/10/2016 18:00 to 17:10 82.57 82.77 82.77 83.48 83.11 82.57
4/10/2016 17:00 to 16:10 82.63 82.85 81.96 81.82 81.96 82.22
4/10/2016 16:00 to 15:10 82.57 82.79 81.70 82.61 83.11 83.05
4/10/2016 15:00 to 14:10 82.71 83.19 82.38 82.93 83.19 84.12
4/10/2016 14:00 to 13:10 83.84 84.95 85.68 86.06 86.45 86.45
4/10/2016 13:00 to 12:10 86.99 86.81 87.21 87.15 87.66 87.44
4/10/2016 12:00 to 11:10 88.14 88.18 89.38 88.49 87.38 86.93
4/10/2016 11:00 to 10:10 87.17 87.32 88.26 86.97 87.96 87.64
4/10/2016 10:00 to 9:10 89.09 24.41 88.69 85.88 85.15 86.79
4/10/2016 09:00 to 8:10 87.92 87.42 87.01 87.52 87.66 87.70
4/10/2016 08:00 to 7:10 87.29 87.25 87.07 86.61 86.00 85.13
4/10/2016 07:00 to 6:10 84.51 84.45 85.15 85.15 85.03 85.98
4/10/2016 06:00 to 5:10 87.54 86.41 85.62 87.86 87.62 85.78
4/10/2016 05:00 to 4:10 86.41 85.92 87.66 86.63 85.56 86.63
4/10/2016 04:00 to 3:10 86.89 86.65 86.47 86.35 86.43 86.14
4/10/2016 03:00 to 2:10 85.60 84.36 83.01 82.63 82.87 82.38
4/10/2016 02:00 to 1:10 82.14 81.72 80.48 81.19 80.73 81.76
4/10/2016 01:00 to 0:10 83.54 84.69 84.63 85.05 85.25 85.52
4/10/2016 00:00 to 23:10 83.94 82.12 82.91 82.61 82.34 82.61
4/9/2016 23:00 to 22:10 82.73 82.67 83.41 83.33 84.32 85.01
4/9/2016 22:00 to 21:10 84.55 83.58 83.48 83.78 82.89 82.59
4/9/2016 21:00 to 20:10 83.21 82.65 82.18 82.65 82.73 84.06
4/9/2016 20:00 to 19:10 84.16 84.47 84.41 84.77 84.06 83.50
4/9/2016 19:00 to 18:10 82.99 82.38 82.67 83.33 82.40 85.42
4/9/2016 18:00 to 17:10 85.86 85.31 84.77 84.43 84.32 84.81
4/9/2016 17:00 to 16:10 85.42 85.33 86.04 86.65 87.44 88.00
4/9/2016 16:00 to 15:10 88.04 87.84 87.42 87.07 86.00 87.17
4/9/2016 15:00 to 14:10 86.12 85.27 86.73 88.73 89.50 89.44
4/9/2016 14:00 to 13:10 90.20 87.90 87.23 86.37 86.04 86.06
4/9/2016 13:00 to 12:10 86.08 86.16 86.45 87.40 87.11 86.69
4/9/2016 12:00 to 11:10 86.02 84.49 83.01 83.01 82.91 81.50
4/9/2016 11:00 to 10:10 82.42 82.47 82.95 82.59 84.51 83.58
4/9/2016 10:00 to 9:10 84.12 84.34 84.38 85.38 79.51 83.27
4/9/2016 09:00 to 8:10 83.66 85.62 84.79 87.13 89.48 89.82
4/9/2016 08:00 to 7:10 90.29 89.15 88.59 87.94 86.95 85.13
4/9/2016 07:00 to 6:10 81.43 88.45 88.45 88.04 87.62 87.82
4/9/2016 06:00 to 5:10 87.32 88.08 87.84 87.60 87.36 87.72
4/9/2016 05:00 to 4:10 87.21 87.52 86.45 86.20 85.96 87.01
4/9/2016 04:00 to 3:10 91.84 92.27 92.43 91.96 90.69 89.82
4/9/2016 03:00 to 2:10 89.56 86.61 85.86 84.79 84.71 84.24
4/9/2016 02:00 to 1:10 84.63 84.24 84.00 84.87 85.35 84.53
4/9/2016 01:00 to 0:10 83.72 84.22 83.66 83.46 83.27 83.44
4/9/2016 00:00 to 23:10 83.80 83.39 83.29 83.19 82.79 83.48
4/8/2016 23:00 to 22:10 83.54 83.11 83.70 83.17 82.83 82.79
4/8/2016 22:00 to 21:10 81.92 81.60 81.72 81.45 82.47 83.19
4/8/2016 21:00 to 20:10 82.34 82.28 82.77 83.19 83.17 83.41
4/8/2016 20:00 to 19:10 81.88 81.80 81.45 82.38 82.36 83.27
4/8/2016 19:00 to 18:10 83.33 82.67 83.27 83.86 84.67 85.05
4/8/2016 18:00 to 17:10 84.43 84.63 84.69 84.26 84.24 84.59
4/8/2016 17:00 to 16:10 83.66 83.01 82.49 84.65 84.65 85.17
4/8/2016 16:00 to 15:10 85.38 85.48 85.31 84.83 84.24 83.52
4/8/2016 15:00 to 14:10 83.52 83.13 84.22 84.34 85.11 84.89
4/8/2016 14:00 to 13:10 86.32 86.26 85.96 86.10 85.98 87.29
4/8/2016 13:00 to 12:10 87.19 87.60 86.37 85.48 86.20 87.09
4/8/2016 12:00 to 11:10 87.17 86.97 87.56 88.00 88.87 89.19
4/8/2016 11:00 to 10:10 89.30 88.95 88.97 88.79 87.98 86.00
4/8/2016 10:00 to 9:10 84.69 88.87 89.86 88.53 87.78 86.28
4/8/2016 09:00 to 8:10 85.78 87.03 88.45 89.46 88.55 88.51
4/8/2016 08:00 to 7:10 88.33 88.69 88.12 88.43 88.08 88.06
4/8/2016 07:00 to 6:10 87.64 87.44 87.94 88.29 87.38 88.47
4/8/2016 06:00 to 5:10 88.51 87.01 86.79 87.62 85.01 86.00
4/8/2016 05:00 to 4:10 85.07 85.27 84.97 85.03 83.64 87.34
4/8/2016 04:00 to 3:10 86.71 87.52 87.52 86.91 87.05 86.79
4/8/2016 03:00 to 2:10 86.91 86.89 86.69 87.42 87.60 86.37
4/8/2016 02:00 to 1:10 85.31 86.53 87.56 86.14 88.06 88.51
4/8/2016 01:00 to 0:10 88.24 88.59 88.53 88.20 87.98 86.41
4/8/2016 00:00 to 23:10 85.76 83.88 83.64 83.52 83.37 83.60
4/7/2016 23:00 to 22:10 83.52 83.13 83.13 82.59 81.66 81.70
4/7/2016 22:00 to 21:10 82.08 82.53 82.42 82.73 83.31 82.59
4/7/2016 21:00 to 20:10 82.44 83.39 83.03 83.64 83.29 83.44
4/7/2016 20:00 to 19:10 84.85 86.32 86.24 87.11 86.69 86.93
4/7/2016 19:00 to 18:10 86.83 86.37 87.15 88.85 89.21 88.51
4/7/2016 18:00 to 17:10 86.37 85.38 87.17 86.95 86.63 86.49
4/7/2016 17:00 to 16:10 85.52 85.19 84.51 88.49 86.69 88.12
4/7/2016 16:00 to 15:10 87.94 88.22 89.03 87.94 88.61 88.08
4/7/2016 15:00 to 14:10 87.80 88.12 88.16 86.28 88.35 87.25
4/7/2016 14:00 to 13:10 85.80 86.41 86.28 87.78 87.48 88.47
4/7/2016 13:00 to 12:10 88.24 87.40 87.09 86.49 86.18 86.43
4/7/2016 12:00 to 11:10 86.81 86.91 86.30 87.50 88.45 87.94
4/7/2016 11:00 to 10:10 86.91 87.34 85.94 86.16 85.66 86.32
4/7/2016 10:00 to 9:10 86.93 86.43 86.67 86.61 87.07 87.15
4/7/2016 09:00 to 8:10 87.15 87.03 87.40 87.36 87.72 87.34
4/7/2016 08:00 to 7:10 86.65 86.89 86.81 86.81 87.25 87.82
4/7/2016 07:00 to 6:10 87.78 88.33 88.73 88.81 87.44 84.93
4/7/2016 06:00 to 5:10 85.72 85.76 86.37 84.16 86.91 85.78
4/7/2016 05:00 to 4:10 86.10 87.01 87.38 87.15 86.45 85.54
4/7/2016 04:00 to 3:10 85.70 85.29 85.38 84.67 85.84 85.72
4/7/2016 03:00 to 2:10 84.41 84.28 85.21 85.15 85.07 84.89
4/7/2016 02:00 to 1:10 85.50 84.77 85.29 85.38 85.68 84.61
4/7/2016 01:00 to 0:10 83.78 82.61 82.85 85.03 84.97 82.73
4/7/2016 00:00 to 23:10 82.47 80.71 84.20 85.90 85.44 85.13
4/6/2016 23:00 to 22:10 84.89 85.98 84.97 84.00 83.60 85.03
4/6/2016 22:00 to 21:10 84.77 84.81 85.35 86.67 88.85 87.38
4/6/2016 21:00 to 20:10 87.17 87.32 86.71 86.67 86.67 87.21
4/6/2016 20:00 to 19:10 87.21 87.60 89.52 87.29 87.42 87.86
4/6/2016 19:00 to 18:10 87.01 86.30 86.79 86.28 85.84 86.16
4/6/2016 18:00 to 17:10 86.10 86.85 86.55 88.14 87.80 87.44
4/6/2016 17:00 to 16:10 87.27 86.77 87.42 86.57 86.12 85.88
4/6/2016 16:00 to 15:10 85.70 84.79 85.11 85.31 87.15 86.65
4/6/2016 15:00 to 14:10 86.71 88.47 87.96 87.62 87.58 88.20
4/6/2016 14:00 to 13:10 87.84 87.64 88.53 89.62 89.64 89.21
4/6/2016 13:00 to 12:10 89.21 89.23 89.48 90.04 89.90 90.04
4/6/2016 12:00 to 11:10 89.50 89.03 87.58 87.27 87.78 89.19
4/6/2016 11:00 to 10:10 90.59 91.07 87.72 89.74 89.36 90.33
4/6/2016 10:00 to 9:10 89.48 88.31 87.74 88.20 91.48 91.19
4/6/2016 09:00 to 8:10 91.19 90.67 90.02 89.32 88.31 86.06
4/6/2016 08:00 to 7:10 82.42 88.81 90.67 90.53 90.69 90.71
4/6/2016 07:00 to 6:10 90.51 90.10 89.64 89.92 89.94 89.80
4/6/2016 06:00 to 5:10 89.72 89.62 89.23 88.77 89.07 89.15
4/6/2016 05:00 to 4:10 88.71 88.81 88.73 88.14 88.06 88.51
4/6/2016 04:00 to 3:10 88.12 87.70 86.75 86.45 86.97 87.44
4/6/2016 03:00 to 2:10 87.11 85.70 86.00 87.05 87.21 86.02
4/6/2016 02:00 to 1:10 86.53 85.94 86.83 86.08 85.88 86.14
4/6/2016 01:00 to 0:10 84.73 84.32 84.59 84.51 83.25 83.07
4/6/2016 00:00 to 23:10 83.84 83.78 82.83 83.13 84.16 83.68
4/5/2016 23:00 to 22:10 84.47 84.47 85.29 84.32 84.99 85.42
4/5/2016 22:00 to 21:10 85.54 85.78 85.27 86.77 86.81 86.47
4/5/2016 21:00 to 20:10 87.25 86.28 85.78 86.22 85.82 85.68
4/5/2016 20:00 to 19:10 85.94 84.99 85.68 85.11 85.09 84.91
4/5/2016 19:00 to 18:10 84.61 84.71 85.03 85.50 84.99 85.50
4/5/2016 18:00 to 17:10 84.97 85.46 87.66 86.22 85.82 85.88
4/5/2016 17:00 to 16:10 86.00 86.14 86.35 86.12 86.39 86.26
4/5/2016 16:00 to 15:10 87.94 87.48 86.87 85.96 85.68 86.32
4/5/2016 15:00 to 14:10 85.94 84.14 84.77 86.87 85.54 86.24
4/5/2016 14:00 to 13:10 86.20 86.00 86.10 86.47 86.47 86.04
4/5/2016 13:00 to 12:10 86.12 86.87 86.57 86.10 86.79 86.43
4/5/2016 12:00 to 11:10 86.20 86.39 87.11 86.08 86.43 85.78
4/5/2016 11:00 to 10:10 84.77 86.59 87.40 86.41 87.15 87.09
4/5/2016 10:00 to 9:10 86.87 87.36 85.80 86.41 87.66 87.40
4/5/2016 09:00 to 8:10 86.20 87.21 87.11 88.59 87.66 86.93
4/5/2016 08:00 to 7:10 85.27 84.16 86.08 85.31 86.55 85.82
4/5/2016 07:00 to 6:10 85.88 85.46 86.53 85.72 85.19 85.54
4/5/2016 06:00 to 5:10 86.97 86.83 85.48 86.39 89.15 88.29
4/5/2016 05:00 to 4:10 87.88 86.93 87.60 90.23 90.43 87.21
4/5/2016 04:00 to 3:10 86.55 85.21 85.17 86.67 85.82 85.19
4/5/2016 03:00 to 2:10 84.43 84.38 82.71 83.52 84.20 83.56
4/5/2016 02:00 to 1:10 82.77 82.51 82.34 81.31 80.85 82.77
4/5/2016 01:00 to 0:10 80.71 80.95 80.53 81.17 82.69 80.73
4/5/2016 00:00 to 23:10 80.57 82.22 82.00 80.38 80.40 81.54
4/4/2016 23:00 to 22:10 79.90 79.05 79.41 79.03 79.98 79.29
4/4/2016 22:00 to 21:10 80.42 81.23 80.75 81.25 82.12 82.26
4/4/2016 21:00 to 20:10 81.43 82.04 82.08 82.20 81.45 81.88
4/4/2016 20:00 to 19:10 82.73 82.63 83.52 82.59 81.80 82.65
4/4/2016 19:00 to 18:10 82.51 81.86 81.33 82.69 81.66 80.46
4/4/2016 18:00 to 17:10 80.18 81.52 81.45 82.55 81.35 82.00
4/4/2016 17:00 to 16:10 81.92 82.77 82.53 83.25 81.70 82.67
4/4/2016 16:00 to 15:10 82.95 83.46 82.61 81.37 80.12 80.89
4/4/2016 15:00 to 14:10 80.71 81.56 80.87 80.83 80.93 80.85
4/4/2016 14:00 to 13:10 81.58 82.22 82.73 82.24 83.86 83.25
4/4/2016 13:00 to 12:10 82.97 82.81 83.09 83.72 82.99 83.29
4/4/2016 12:00 to 11:10 83.31 83.31 83.54 83.54 83.07 83.54
4/4/2016 11:00 to 10:10 82.26 82.14 82.93 83.56 84.14 84.18
4/4/2016 10:00 to 9:10 84.20 85.25 85.01 84.85 84.47 84.10
4/4/2016 09:00 to 8:10 84.91 84.18 83.58 82.42 82.73 83.96
4/4/2016 08:00 to 7:10 83.50 83.74 84.51 84.16 83.96 83.68
4/4/2016 07:00 to 6:10 82.93 82.85 82.26 81.78 82.16 82.36
4/4/2016 06:00 to 5:10 81.41 81.27 80.83 81.15 81.35 80.53
4/4/2016 05:00 to 4:10 82.42 83.39 82.91 82.36 82.12 82.61
4/4/2016 04:00 to 3:10 82.04 83.03 83.41 82.67 82.83 81.62
4/4/2016 03:00 to 2:10 81.25 80.55 80.99 82.04 81.05 81.66
4/4/2016 02:00 to 1:10 82.61 83.96 83.11 82.10 81.27 80.71
4/4/2016 01:00 to 0:10 79.27 77.84 77.78 77.11 78.63 77.21